Terminal Aerodrome Forecast
Issued by NWS

Home | Current Version | Previous Version | Text Only | Print | Product List | Glossary On
Versions: 1 2 3 4 5 6 7 8 9 10 11 12 13 14 15 16 17 18 19
684
FTUS43 KDLH 101735
TAFHYR
TAF
KHYR 101735Z 1018/1118 23003KT P6SM -SHSN BKN025
     FM102000 19003KT P6SM SCT025 BKN140
     FM110300 12002KT P6SM VCSH SCT018 BKN035 OVC050
     FM110700 11003KT P6SM -SHSN SCT014 OVC028
     FM111100 11005KT 2SM -SN BR SCT008 OVC012=

USA.gov is the U.S. government's official web portal to all federal, state and local government web resources and services.